Time;durP1;ratioP1;P1;durP2;ratioP2;P2;SDS_P1;SDS_P2;PMS_P1;PMS_P2;Temp;Humidity;BMP_temperature;BMP_pressure;BME280_temperature;BME280_humidity;BME280_pressure;Samples;Min_cycle;Max_cycle;Signal;HPM_P1;HPM_P2
2023/12/09 00:01:43;;;;;;;12.90;11.60;;;;;;;5.97;100.00;97891.00;5093713;28;20199;-74
2023/12/09 00:04:09;;;;;;;14.17;11.70;;;;;;;5.94;100.00;97886.94;5093666;28;20205;-74
2023/12/09 00:06:37;;;;;;;13.30;11.90;;;;;;;5.94;100.00;97894.03;5093413;28;20716;-74
2023/12/09 00:09:03;;;;;;;14.10;11.83;;;;;;;5.90;100.00;97888.31;5093538;28;20227;-74
2023/12/09 00:11:30;;;;;;;13.07;11.43;;;;;;;5.92;100.00;97888.13;5093439;28;20696;-74
2023/12/09 00:14:01;;;;;;;14.07;11.63;;;;;;;5.92;100.00;97893.41;5093368;28;20210;-74
2023/12/09 00:16:28;;;;;;;12.97;11.57;;;;;;;5.94;100.00;97889.56;5093827;28;20184;-74
2023/12/09 00:18:54;;;;;;;12.60;11.13;;;;;;;5.90;100.00;97898.06;5093414;28;20220;-74
2023/12/09 00:21:20;;;;;;;13.90;11.03;;;;;;;5.97;100.00;97898.91;5093283;28;20233;-74
2023/12/09 00:23:46;;;;;;;13.30;10.67;;;;;;;5.92;100.00;97896.06;5093342;28;20573;-74
2023/12/09 00:26:13;;;;;;;11.70;10.50;;;;;;;5.92;100.00;97898.69;5093247;28;20223;-74
2023/12/09 00:28:39;;;;;;;12.70;11.37;;;;;;;5.93;100.00;97902.94;5093519;28;20204;-74
2023/12/09 00:31:05;;;;;;;14.30;11.43;;;;;;;5.95;100.00;97893.84;5093074;28;20214;-74
2023/12/09 00:33:32;;;;;;;13.83;10.97;;;;;;;5.96;100.00;97892.00;5093230;28;20589;-74
2023/12/09 00:35:58;;;;;;;14.20;11.33;;;;;;;5.94;100.00;97892.22;5093186;28;20558;-74
2023/12/09 00:38:24;;;;;;;13.37;11.47;;;;;;;5.91;100.00;97897.03;5093005;28;20208;-74
2023/12/09 00:40:51;;;;;;;13.63;11.70;;;;;;;5.86;100.00;97902.91;5092851;28;20239;-74
2023/12/09 00:43:17;;;;;;;12.97;10.70;;;;;;;5.89;100.00;97891.16;5093283;28;20204;-74
2023/12/09 00:45:43;;;;;;;13.03;10.90;;;;;;;5.85;100.00;97896.00;5093138;28;20227;-74
2023/12/09 00:48:10;;;;;;;14.13;11.53;;;;;;;5.86;100.00;97894.16;5092812;28;20704;-74
2023/12/09 00:50:36;;;;;;;13.00;11.03;;;;;;;5.87;100.00;97896.63;5093172;28;20224;-74
2023/12/09 00:53:02;;;;;;;11.63;10.40;;;;;;;5.86;100.00;97891.53;5093166;28;20199;-74
2023/12/09 00:55:29;;;;;;;15.40;11.40;;;;;;;5.94;100.00;97894.03;5093365;28;20200;-74
2023/12/09 00:57:55;;;;;;;13.77;11.80;;;;;;;5.93;100.00;97897.69;5093165;28;20204;-74
2023/12/09 01:00:21;;;;;;;14.67;11.40;;;;;;;5.88;100.00;97905.34;5093128;28;20220;-74
2023/12/09 01:02:48;;;;;;;12.47;10.93;;;;;;;5.91;100.00;97907.59;5093051;28;20243;-74
2023/12/09 01:05:14;;;;;;;12.80;11.47;;;;;;;5.84;100.00;97910.19;5092995;28;20234;-74
2023/12/09 01:07:40;;;;;;;14.20;11.03;;;;;;;5.84;100.00;97912.03;5093016;28;20200;-74
2023/12/09 01:10:07;;;;;;;14.03;10.83;;;;;;;5.82;100.00;97911.38;5094837;28;20581;-74
2023/12/09 01:12:34;;;;;;;16.00;11.83;;;;;;;5.82;100.00;97914.84;5096339;28;20582;-74
2023/12/09 01:15:00;;;;;;;12.90;11.43;;;;;;;5.81;100.00;97920.31;5096603;28;20204;-74
2023/12/09 01:17:26;;;;;;;11.97;10.50;;;;;;;5.83;100.00;97918.31;5096581;28;20204;-74
2023/12/09 01:19:53;;;;;;;13.00;11.17;;;;;;;5.85;100.00;97930.31;5096368;28;20223;-74
2023/12/09 01:22:19;;;;;;;12.97;11.03;;;;;;;5.86;100.00;97925.81;5096312;28;20210;-74
2023/12/09 01:24:46;;;;;;;12.10;10.80;;;;;;;5.81;100.00;97925.59;5096406;28;20211;-74
2023/12/09 01:27:12;;;;;;;13.20;11.00;;;;;;;5.84;100.00;97936.56;5096017;28;20671;-74
2023/12/09 01:29:39;;;;;;;12.00;10.40;;;;;;;5.79;100.00;97928.38;5096315;28;20230;-74
2023/12/09 01:32:05;;;;;;;12.57;10.93;;;;;;;5.81;100.00;97936.97;5096309;28;20208;-74
2023/12/09 01:34:31;;;;;;;14.93;11.77;;;;;;;5.87;100.00;97932.72;5096239;28;20204;-74
2023/12/09 01:36:58;;;;;;;15.67;11.20;;;;;;;5.83;100.00;97940.22;5095918;28;20230;-74
2023/12/09 01:39:24;;;;;;;16.87;11.37;;;;;;;5.80;100.00;97940.63;5096129;28;20234;-74
2023/12/09 01:41:50;;;;;;;15.30;11.77;;;;;;;5.84;100.00;97941.84;5096335;28;20203;-74
2023/12/09 01:44:17;;;;;;;14.87;11.80;;;;;;;5.82;100.00;97940.41;5096048;28;20208;-74
2023/12/09 01:46:43;;;;;;;13.93;11.80;;;;;;;5.81;100.00;97951.97;5095450;28;20224;-74
2023/12/09 01:49:10;;;;;;;18.17;11.57;;;;;;;5.80;100.00;97959.06;5095487;28;20235;-74
2023/12/09 01:51:38;;;;;;;12.37;10.47;;;;;;;5.87;100.00;97967.03;5095821;28;20200;-74
2023/12/09 01:54:05;;;;;;;16.57;11.17;;;;;;;5.85;100.00;97959.31;5095886;28;20281;-74
2023/12/09 01:56:31;;;;;;;13.00;10.53;;;;;;;5.84;100.00;97960.31;5095838;28;20207;-74
2023/12/09 01:58:58;;;;;;;13.63;11.47;;;;;;;5.84;100.00;97962.16;5095604;28;20224;-74
2023/12/09 02:01:25;;;;;;;11.60;10.23;;;;;;;5.84;100.00;97960.31;5095385;28;20212;-74
2023/12/09 02:03:52;;;;;;;11.73;10.20;;;;;;;5.82;100.00;97964.97;5095596;28;20210;-74
2023/12/09 02:06:18;;;;;;;12.20;10.53;;;;;;;5.82;100.00;97959.69;5095584;28;20227;-74
2023/12/09 02:08:45;;;;;;;13.37;10.10;;;;;;;5.83;100.00;97961.31;5095293;28;20578;-74
2023/12/09 02:11:28;;;;;;;12.23;10.43;;;;;;;5.81;100.00;97968.63;5095632;28;20204;-74
2023/12/09 02:14:07;;;;;;;12.00;9.87;;;;;;;5.80;100.00;97974.91;5095496;28;20556;-74
2023/12/09 02:16:52;;;;;;;13.30;10.30;;;;;;;5.81;100.00;97963.34;5095441;28;20688;-74
2023/12/09 02:19:18;;;;;;;13.20;10.80;;;;;;;5.83;100.00;97960.53;5077422;28;20247;-74
2023/12/09 02:22:06;;;;;;;11.97;10.60;;;;;;;5.81;100.00;97970.44;5094490;28;20210;-74
2023/12/09 02:24:33;;;;;;;16.20;11.80;;;;;;;5.77;100.00;97964.69;5095506;28;20212;-74
2023/12/09 02:27:03;;;;;;;14.23;11.60;;;;;;;5.83;100.00;97949.97;5095039;28;20628;-74
2023/12/09 02:29:35;;;;;;;13.17;11.60;;;;;;;5.84;100.00;97946.31;5095864;28;20239;-74
2023/12/09 02:32:06;;;;;;;11.60;10.47;;;;;;;5.78;100.00;97947.03;5095705;28;20192;-74
2023/12/09 02:34:37;;;;;;;13.30;10.77;;;;;;;5.87;100.00;97944.09;5094916;28;20635;-74
2023/12/09 02:37:06;;;;;;;13.80;11.07;;;;;;;5.81;100.00;97942.25;5095159;28;20234;-74
2023/12/09 02:39:32;;;;;;;14.23;11.30;;;;;;;5.84;100.00;97935.75;5095258;28;20220;-74
2023/12/09 02:41:59;;;;;;;16.10;10.17;;;;;;;5.87;100.00;97944.09;5094631;28;20568;-74
2023/12/09 02:44:26;;;;;;;12.87;10.30;;;;;;;5.91;100.00;97939.25;5094944;28;20208;-74
2023/12/09 02:46:57;;;;;;;14.13;10.07;;;;;;;5.84;100.00;97946.31;5094556;28;20224;-74
2023/12/09 02:49:24;;;;;;;12.07;9.80;;;;;;;5.97;100.00;97941.13;5095048;28;20230;-74
2023/12/09 02:51:51;;;;;;;13.97;9.27;;;;;;;6.05;100.00;97931.25;5094821;28;20203;-74
2023/12/09 02:54:18;;;;;;;8.30;6.13;;;;;;;6.18;100.00;97933.13;5094688;28;20203;-74
2023/12/09 02:56:44;;;;;;;10.10;7.30;;;;;;;6.12;100.00;97932.09;5094401;28;20208;-74
2023/12/09 02:59:11;;;;;;;9.20;6.00;;;;;;;6.13;100.00;97932.91;5094514;28;20227;-74
2023/12/09 03:01:37;;;;;;;9.87;6.50;;;;;;;6.14;100.00;97913.41;5094718;28;20204;-74
2023/12/09 03:04:03;;;;;;;8.53;5.10;;;;;;;6.16;100.00;97908.78;5094560;28;20200;-74
2023/12/09 03:06:30;;;;;;;7.73;4.70;;;;;;;6.27;100.00;97905.56;5094405;28;20230;-74
2023/12/09 03:08:56;;;;;;;7.40;4.53;;;;;;;6.25;100.00;97900.47;5094347;28;20224;-74
2023/12/09 03:11:22;;;;;;;7.53;4.23;;;;;;;6.16;100.00;97898.22;5094170;28;20571;-74
2023/12/09 03:13:49;;;;;;;7.10;4.40;;;;;;;6.14;100.00;97898.41;5094063;28;20211;-74
2023/12/09 03:16:15;;;;;;;6.27;4.33;;;;;;;6.12;100.00;97894.34;5094918;28;20208;-74
2023/12/09 03:18:41;;;;;;;10.37;4.87;;;;;;;6.04;100.00;97902.41;5093913;28;20214;-74
2023/12/09 03:21:08;;;;;;;6.23;4.57;;;;;;;5.96;100.00;97892.81;5093933;28;20208;-74
2023/12/09 03:23:34;;;;;;;6.20;4.63;;;;;;;5.96;100.00;97886.72;5094046;28;20203;-74
2023/12/09 03:26:00;;;;;;;7.87;4.77;;;;;;;5.93;100.00;97892.41;5094057;28;20227;-74
2023/12/09 03:28:27;;;;;;;7.80;4.77;;;;;;;5.90;100.00;97890.97;5094161;28;20204;-74
2023/12/09 03:30:53;;;;;;;7.97;4.53;;;;;;;5.89;100.00;97880.59;5094022;28;20253;-74
2023/12/09 03:33:19;;;;;;;10.10;5.77;;;;;;;5.89;100.00;97883.25;5093988;28;20659;-74
2023/12/09 03:35:46;;;;;;;13.37;5.87;;;;;;;5.81;100.00;97875.47;5093686;28;20218;-74
2023/12/09 03:38:12;;;;;;;9.40;5.33;;;;;;;5.82;100.00;97885.00;5094376;28;20218;-74
2023/12/09 03:40:38;;;;;;;11.30;6.03;;;;;;;5.68;100.00;97886.72;5093923;28;20220;-74
2023/12/09 03:43:05;;;;;;;10.53;6.57;;;;;;;5.67;100.00;97877.19;5093934;28;20200;-74
2023/12/09 03:45:31;;;;;;;11.57;7.30;;;;;;;5.58;100.00;97877.50;5093830;28;20281;-74
2023/12/09 03:47:57;;;;;;;9.57;6.90;;;;;;;5.48;100.00;97871.75;5093570;28;20212;-74
2023/12/09 03:50:24;;;;;;;8.93;7.30;;;;;;;5.37;100.00;97867.81;5093764;28;20588;-74
2023/12/09 03:52:50;;;;;;;10.93;8.03;;;;;;;5.28;100.00;97878.69;5093527;28;20669;-74
2023/12/09 03:55:16;;;;;;;10.37;8.37;;;;;;;5.15;100.00;97871.47;5093625;28;20200;-74
2023/12/09 03:57:43;;;;;;;12.80;8.20;;;;;;;5.11;100.00;97879.97;5094023;28;20196;-74
2023/12/09 04:00:10;;;;;;;9.27;8.27;;;;;;;5.06;100.00;97883.16;5093491;28;20307;-74
2023/12/09 04:02:36;;;;;;;9.90;7.67;;;;;;;4.95;100.00;97881.03;5093262;28;20199;-74
2023/12/09 04:05:03;;;;;;;10.20;7.53;;;;;;;4.80;100.00;97874.97;5093509;28;20199;-74
2023/12/09 04:07:29;;;;;;;9.13;6.90;;;;;;;4.75;100.00;97873.94;5093796;28;20222;-74
2023/12/09 04:09:56;;;;;;;10.37;8.40;;;;;;;4.82;100.00;97874.78;5093457;28;20224;-74
2023/12/09 04:12:22;;;;;;;11.90;8.83;;;;;;;4.77;100.00;97872.75;5093069;28;20263;-74
2023/12/09 04:14:48;;;;;;;9.07;7.20;;;;;;;4.66;100.00;97875.84;5093495;28;20206;-74
2023/12/09 04:17:15;;;;;;;9.27;7.97;;;;;;;4.65;100.00;97861.06;5093549;28;20564;-74
2023/12/09 04:19:41;;;;;;;9.00;8.10;;;;;;;4.62;100.00;97869.31;5093443;28;20230;-74
2023/12/09 04:22:08;;;;;;;10.73;8.83;;;;;;;4.54;100.00;97866.00;5093751;28;20203;-74
2023/12/09 04:24:34;;;;;;;9.67;8.67;;;;;;;4.53;100.00;97883.59;5093509;28;20208;-74
2023/12/09 04:27:00;;;;;;;13.73;9.00;;;;;;;4.65;100.00;97890.00;5093352;28;20230;-74
2023/12/09 04:29:27;;;;;;;10.77;8.43;;;;;;;4.63;100.00;97888.56;5093605;28;20223;-74
2023/12/09 04:31:53;;;;;;;10.73;9.07;;;;;;;4.67;100.00;97892.47;5093030;28;20685;-74
2023/12/09 04:34:19;;;;;;;10.77;9.47;;;;;;;4.71;100.00;97897.16;5093385;28;20208;-74
2023/12/09 04:36:46;;;;;;;13.70;8.63;;;;;;;4.67;100.00;97905.63;5093071;28;20203;-74
2023/12/09 04:39:12;;;;;;;9.83;8.63;;;;;;;4.75;100.00;97906.31;5093253;28;20227;-74
2023/12/09 04:41:39;;;;;;;10.27;8.30;;;;;;;4.72;100.00;97896.19;5093242;28;20253;-74
2023/12/09 04:44:05;;;;;;;12.67;8.53;;;;;;;4.80;100.00;97893.41;5093441;28;20207;-74
2023/12/09 04:46:32;;;;;;;16.03;8.73;;;;;;;4.86;100.00;97891.84;5096697;28;20220;-74
2023/12/09 04:48:59;;;;;;;10.10;8.97;;;;;;;4.92;100.00;97894.56;5096685;28;20718;-74
2023/12/09 04:51:25;;;;;;;14.90;8.73;;;;;;;4.93;100.00;97898.81;5096981;28;20225;-74
2023/12/09 04:53:51;;;;;;;11.87;8.60;;;;;;;4.92;100.00;97904.28;5097041;28;20563;-74
2023/12/09 04:56:19;;;;;;;9.57;8.13;;;;;;;4.94;100.00;97910.19;5096975;28;20204;-74
2023/12/09 04:58:45;;;;;;;10.47;8.23;;;;;;;4.96;100.00;97913.44;5096987;28;20574;-74
2023/12/09 05:01:11;;;;;;;11.73;8.63;;;;;;;5.06;100.00;97900.78;5096894;28;20211;-74
2023/12/09 05:03:38;;;;;;;10.83;7.87;;;;;;;5.03;100.00;97891.44;5096701;28;20203;-74
2023/12/09 05:06:04;;;;;;;10.93;7.60;;;;;;;5.11;100.00;97888.66;5096726;28;20206;-74
2023/12/09 05:08:31;;;;;;;12.60;7.67;;;;;;;5.08;100.00;97891.69;5096635;28;20287;-74
2023/12/09 05:10:58;;;;;;;10.93;8.00;;;;;;;5.05;100.00;97885.97;5096658;28;20200;-74
2023/12/09 05:13:24;;;;;;;13.23;7.70;;;;;;;5.19;100.00;97883.28;5096595;28;20294;-74
2023/12/09 05:15:51;;;;;;;9.00;7.33;;;;;;;5.18;100.00;97875.56;5096532;28;20235;-74
2023/12/09 05:18:17;;;;;;;10.70;8.10;;;;;;;5.23;100.00;97874.00;5096532;28;20204;-74
2023/12/09 05:20:45;;;;;;;9.30;6.67;;;;;;;5.28;100.00;97876.88;5096290;28;20269;-74
2023/12/09 05:23:11;;;;;;;9.80;7.20;;;;;;;5.27;100.00;97875.25;5096679;28;20302;-74
2023/12/09 05:25:38;;;;;;;10.23;6.67;;;;;;;5.27;100.00;97874.41;5096080;28;20576;-74
2023/12/09 05:28:04;;;;;;;11.07;7.10;;;;;;;5.27;100.00;97864.69;5096598;28;20228;-74
2023/12/09 05:30:31;;;;;;;11.77;7.40;;;;;;;5.31;100.00;97859.84;5095993;28;20224;-74
2023/12/09 05:32:58;;;;;;;10.37;7.43;;;;;;;5.34;100.00;97860.28;5096424;28;20208;-74
2023/12/09 05:35:25;;;;;;;11.60;7.20;;;;;;;5.36;100.00;97862.72;5096220;28;20208;-74
2023/12/09 05:37:51;;;;;;;13.33;7.00;;;;;;;5.39;100.00;97859.72;5096055;28;20196;-74
2023/12/09 05:40:18;;;;;;;11.60;7.20;;;;;;;5.30;100.00;97847.69;5095617;28;20228;-74
2023/12/09 05:42:44;;;;;;;11.10;7.43;;;;;;;5.29;100.00;97846.88;5095950;28;20208;-74
2023/12/09 05:45:11;;;;;;;10.73;7.47;;;;;;;5.29;100.00;97852.13;5095720;28;20699;-74
2023/12/09 05:47:37;;;;;;;11.03;7.13;;;;;;;5.25;100.00;97840.34;5095614;28;20230;-74
2023/12/09 05:50:04;;;;;;;11.63;7.03;;;;;;;5.27;100.00;97842.78;5095646;28;20223;-74
2023/12/09 05:52:30;;;;;;;8.97;6.27;;;;;;;5.28;100.00;97839.13;5095956;28;20204;-74
2023/12/09 05:54:57;;;;;;;8.83;6.13;;;;;;;5.31;100.00;97849.31;5095634;28;20207;-74
2023/12/09 05:57:23;;;;;;;7.07;4.90;;;;;;;5.26;100.00;97844.63;5094746;28;20203;-74
2023/12/09 05:59:49;;;;;;;9.77;4.73;;;;;;;5.46;100.00;97842.13;5095600;28;20315;-74
2023/12/09 06:02:16;;;;;;;6.43;3.83;;;;;;;5.39;100.00;97843.91;5095656;28;20295;-74
2023/12/09 06:04:42;;;;;;;5.53;3.93;;;;;;;5.44;100.00;97846.78;5095527;28;20222;-74
2023/12/09 06:07:09;;;;;;;5.97;4.20;;;;;;;5.48;100.00;97848.03;5095288;28;20582;-74
2023/12/09 06:09:35;;;;;;;8.50;4.20;;;;;;;5.48;100.00;97846.19;5095537;28;20224;-74
2023/12/09 06:12:01;;;;;;;6.77;3.40;;;;;;;5.64;100.00;97838.00;5095535;28;20203;-74
2023/12/09 06:14:28;;;;;;;7.83;3.50;;;;;;;5.64;100.00;97839.81;5095410;28;20204;-74
2023/12/09 06:16:54;;;;;;;7.10;3.70;;;;;;;5.73;100.00;97843.94;5095353;28;20200;-74
2023/12/09 06:19:20;;;;;;;5.43;3.60;;;;;;;5.67;100.00;97840.25;5094897;28;20710;-74
2023/12/09 06:21:47;;;;;;;4.87;2.80;;;;;;;5.75;100.00;97841.94;5095228;28;20286;-74
2023/12/09 06:24:14;;;;;;;7.70;3.27;;;;;;;5.73;100.00;97836.00;5094832;28;20238;-74
2023/12/09 06:26:44;;;;;;;6.27;3.17;;;;;;;5.81;100.00;97841.19;5094689;28;20237;-74
2023/12/09 06:29:14;;;;;;;6.10;3.00;;;;;;;5.82;100.00;97837.53;5095076;28;20223;-74
2023/12/09 06:31:41;;;;;;;7.77;3.40;;;;;;;5.81;100.00;97834.09;5094550;28;20586;-74
2023/12/09 06:34:07;;;;;;;7.37;3.50;;;;;;;5.82;100.00;97829.59;5094850;28;20686;-74
2023/12/09 06:36:34;;;;;;;8.20;3.17;;;;;;;5.88;100.00;97821.72;5094530;28;20204;-74
2023/12/09 06:39:00;;;;;;;7.63;3.23;;;;;;;5.84;100.00;97823.13;5094794;28;20250;-74
2023/12/09 06:41:26;;;;;;;6.57;3.00;;;;;;;5.83;100.00;97831.25;5094846;28;20575;-73
2023/12/09 06:43:53;;;;;;;3.80;2.80;;;;;;;5.91;100.00;97831.91;5094577;28;20652;-73
2023/12/09 06:46:19;;;;;;;4.80;2.90;;;;;;;5.90;100.00;97830.28;5094420;28;20208;-73
2023/12/09 06:48:45;;;;;;;5.20;2.63;;;;;;;5.87;100.00;97829.84;5094446;28;20227;-73
2023/12/09 06:51:16;;;;;;;6.53;2.83;;;;;;;5.84;100.00;97833.69;5094488;28;20269;-73
2023/12/09 06:53:43;;;;;;;5.73;2.70;;;;;;;5.85;100.00;97826.59;5094322;28;20678;-73
2023/12/09 06:56:18;;;;;;;5.80;3.03;;;;;;;5.84;100.00;97830.25;5094201;28;20204;-73
2023/12/09 06:58:45;;;;;;;5.13;2.97;;;;;;;5.83;100.00;97829.41;5094274;28;20188;-73
2023/12/09 07:01:25;;;;;;;6.17;3.10;;;;;;;5.87;100.00;97821.91;5094657;28;20298;-73
2023/12/09 07:03:51;;;;;;;6.37;3.30;;;;;;;5.89;100.00;97823.34;5094450;28;20198;-73
2023/12/09 07:06:25;;;;;;;7.10;3.07;;;;;;;5.81;100.00;97828.81;5093918;28;20667;-74
2023/12/09 07:08:53;;;;;;;4.43;2.93;;;;;;;5.79;100.00;97825.50;5093770;28;20188;-74
2023/12/09 07:11:21;;;;;;;5.97;3.20;;;;;;;5.76;100.00;97822.44;5094008;28;20253;-74
2023/12/09 07:13:48;;;;;;;7.00;2.80;;;;;;;5.77;100.00;97821.44;5094253;28;20208;-74
2023/12/09 07:16:14;;;;;;;4.20;2.70;;;;;;;5.80;100.00;97814.00;5094007;28;20290;-73
2023/12/09 07:18:45;;;;;;;6.30;2.93;;;;;;;5.81;100.00;97814.81;5094138;28;20208;-73
2023/12/09 07:21:12;;;;;;;4.43;2.40;;;;;;;5.81;100.00;97825.34;5094341;28;20207;-74
2023/12/09 07:23:38;;;;;;;6.73;3.13;;;;;;;5.85;100.00;97831.88;5094159;28;20199;-74
2023/12/09 07:26:05;;;;;;;7.63;3.13;;;;;;;5.85;100.00;97827.41;5093956;28;20204;-74
2023/12/09 07:28:31;;;;;;;6.87;2.90;;;;;;;5.93;100.00;97837.00;5093609;28;20723;-74
2023/12/09 07:30:57;;;;;;;5.17;2.20;;;;;;;5.90;100.00;97834.72;5093634;28;20215;-74
2023/12/09 07:33:24;;;;;;;5.87;2.47;;;;;;;5.91;100.00;97831.91;5093616;28;20663;-73
2023/12/09 07:35:50;;;;;;;5.03;2.60;;;;;;;6.01;100.00;97839.47;5093482;28;20204;-74
2023/12/09 07:38:17;;;;;;;4.43;2.30;;;;;;;6.06;100.00;97834.44;5093506;28;20204;-74
2023/12/09 07:40:43;;;;;;;2.87;2.00;;;;;;;6.10;100.00;97823.28;5093753;28;20228;-74
2023/12/09 07:43:10;;;;;;;6.10;2.17;;;;;;;6.06;100.00;97824.66;5093911;28;20577;-74
2023/12/09 07:45:36;;;;;;;6.37;2.20;;;;;;;6.23;100.00;97825.13;5093826;28;20210;-74
2023/12/09 07:48:03;;;;;;;5.03;2.03;;;;;;;6.12;100.00;97809.88;5093437;28;20706;-73
2023/12/09 07:50:32;;;;;;;4.40;2.07;;;;;;;6.21;100.00;97817.44;5093679;28;20266;-73
2023/12/09 07:52:58;;;;;;;5.77;1.87;;;;;;;6.14;100.00;97813.94;5093781;28;20294;-73
2023/12/09 07:55:25;;;;;;;4.57;2.17;;;;;;;6.20;100.00;97815.00;5093508;28;20200;-73
2023/12/09 07:57:51;;;;;;;6.43;1.93;;;;;;;6.30;100.00;97812.78;5093953;28;20204;-73
2023/12/09 08:00:18;;;;;;;3.43;1.90;;;;;;;6.23;100.00;97823.31;5092966;28;20718;-73
2023/12/09 08:02:44;;;;;;;3.63;2.17;;;;;;;6.24;100.00;97826.78;5093433;28;20222;-73
2023/12/09 08:05:11;;;;;;;3.93;1.70;;;;;;;6.18;100.00;97824.91;5093471;28;20204;-73
2023/12/09 08:07:38;;;;;;;2.80;1.90;;;;;;;6.27;100.00;97821.09;5093375;28;20318;-73
2023/12/09 08:10:06;;;;;;;4.33;1.67;;;;;;;6.30;100.00;97818.91;5093221;28;20230;-73
2023/12/09 08:12:32;;;;;;;5.17;2.17;;;;;;;6.29;100.00;97811.19;5093298;28;20586;-73
2023/12/09 08:14:58;;;;;;;3.60;2.30;;;;;;;6.32;100.00;97802.84;5092994;28;20638;-73
2023/12/09 08:17:25;;;;;;;3.50;1.90;;;;;;;6.23;100.00;97804.03;5093324;28;20278;-73
2023/12/09 08:19:51;;;;;;;3.43;1.90;;;;;;;6.31;100.00;97806.50;5094750;28;20231;-73
2023/12/09 08:22:17;;;;;;;4.53;1.83;;;;;;;6.28;100.00;97807.72;5097527;28;20218;-76
2023/12/09 08:24:44;;;;;;;5.83;2.13;;;;;;;6.25;100.00;97804.66;5097544;28;20207;-75
2023/12/09 08:27:10;;;;;;;5.23;1.87;;;;;;;6.29;100.00;97803.25;5097246;28;20234;-74
2023/12/09 08:29:36;;;;;;;4.67;2.20;;;;;;;6.32;100.00;97805.47;5097401;28;20224;-75
2023/12/09 08:32:03;;;;;;;4.67;2.17;;;;;;;6.24;100.00;97813.59;5097410;28;20222;-75
2023/12/09 08:34:30;;;;;;;4.73;1.97;;;;;;;6.12;100.00;97802.78;5097120;28;20200;-75
2023/12/09 08:36:56;;;;;;;3.30;1.83;;;;;;;6.13;100.00;97803.59;5097050;28;20204;-75
2023/12/09 08:39:23;;;;;;;4.50;2.10;;;;;;;6.21;100.00;97800.78;5098091;28;20224;-75
2023/12/09 08:41:49;;;;;;;2.83;1.70;;;;;;;6.17;100.00;97799.53;5096299;28;20667;-75
2023/12/09 08:44:16;;;;;;;4.80;2.07;;;;;;;6.19;100.00;97800.19;5096446;28;20568;-75
2023/12/09 08:46:43;;;;;;;4.00;2.00;;;;;;;6.26;100.00;97798.34;5097003;28;20214;-75
2023/12/09 08:49:09;;;;;;;5.83;2.00;;;;;;;6.44;100.00;97801.25;5096575;28;20228;-75
2023/12/09 08:51:49;;;;;;;3.23;1.90;;;;;;;6.45;100.00;97809.00;5096765;28;20211;-75
2023/12/09 08:54:15;;;;;;;8.20;2.33;;;;;;;6.46;100.00;97815.06;5096813;28;20285;-75
2023/12/09 08:56:42;;;;;;;3.93;1.97;;;;;;;6.62;100.00;97812.06;5096924;28;20204;-75
2023/12/09 08:59:10;;;;;;;5.37;2.87;;;;;;;6.59;100.00;97812.47;5096799;28;20228;-75
2023/12/09 09:01:37;;;;;;;5.90;2.20;;;;;;;6.62;100.00;97801.50;5096479;28;20566;-75
2023/12/09 09:04:03;;;;;;;5.23;2.03;;;;;;;6.72;100.00;97796.66;5096336;28;20214;-75
2023/12/09 09:06:31;;;;;;;4.17;2.30;;;;;;;6.79;100.00;97782.44;5096651;28;20210;-75
2023/12/09 09:08:57;;;;;;;6.40;2.07;;;;;;;6.79;100.00;97784.28;5096595;28;20231;-75
2023/12/09 09:11:24;;;;;;;5.90;1.97;;;;;;;6.81;100.00;97790.16;5096261;28;20572;-75
2023/12/09 09:13:50;;;;;;;4.17;2.20;;;;;;;6.93;100.00;97781.41;5096344;28;20297;-75
2023/12/09 09:16:17;;;;;;;3.50;1.90;;;;;;;6.75;100.00;97780.41;5096567;28;20200;-75
2023/12/09 09:18:43;;;;;;;3.90;1.80;;;;;;;6.87;100.00;97778.81;5096420;28;20203;-75
2023/12/09 09:21:10;;;;;;;4.17;2.10;;;;;;;6.80;100.00;97768.22;5096246;28;20203;-75
2023/12/09 09:23:36;;;;;;;4.53;2.17;;;;;;;6.86;100.00;97774.50;5096369;28;20257;-75
2023/12/09 09:26:03;;;;;;;3.87;2.20;;;;;;;6.97;100.00;97782.66;5096313;28;20211;-75
2023/12/09 09:28:29;;;;;;;4.50;1.97;;;;;;;7.00;100.00;97778.78;5096120;28;20236;-75
2023/12/09 09:30:56;;;;;;;4.40;1.70;;;;;;;7.05;100.00;97782.44;5095773;28;20228;-75
2023/12/09 09:33:22;;;;;;;3.80;1.83;;;;;;;6.96;100.00;97782.84;5096152;28;20204;-75
2023/12/09 09:35:51;;;;;;;3.10;1.80;;;;;;;7.01;100.00;97778.59;5095843;28;20674;-75
2023/12/09 09:38:17;;;;;;;2.80;1.77;;;;;;;7.15;100.00;97764.34;5095964;28;20215;-75
2023/12/09 09:40:44;;;;;;;3.27;1.80;;;;;;;7.10;100.00;97756.22;5095829;28;20231;-75
2023/12/09 09:43:19;;;;;;;3.97;1.83;;;;;;;7.19;100.00;97754.19;5095687;28;20662;-75
2023/12/09 09:45:48;;;;;;;3.63;1.77;;;;;;;7.16;100.00;97758.06;5095584;28;20184;-75
2023/12/09 09:48:17;;;;;;;5.03;2.07;;;;;;;7.20;100.00;97734.66;5095556;28;20223;-75
2023/12/09 09:50:52;;;;;;;5.80;2.20;;;;;;;7.23;100.00;97734.25;5078162;28;20230;-75
2023/12/09 09:53:32;;;;;;;4.13;1.90;;;;;;;7.33;100.00;97738.09;5095833;28;20239;-75
2023/12/09 09:55:59;;;;;;;4.03;2.20;;;;;;;7.39;100.00;97734.66;5078863;28;20761;-75
2023/12/09 09:58:26;;;;;;;4.73;2.20;;;;;;;7.38;100.00;97737.50;5095207;28;20196;-75
2023/12/09 10:00:55;;;;;;;3.80;1.87;;;;;;;7.45;100.00;97730.34;5095505;28;20228;-75
2023/12/09 10:03:23;;;;;;;4.53;1.90;;;;;;;7.43;100.00;97724.47;5095483;28;20629;-75
2023/12/09 10:05:50;;;;;;;3.63;1.97;;;;;;;7.44;100.00;97716.31;5095303;28;20778;-75
2023/12/09 10:08:17;;;;;;;4.67;1.83;;;;;;;7.34;100.00;97729.13;5095470;28;20250;-75
2023/12/09 10:10:43;;;;;;;4.77;1.67;;;;;;;7.42;100.00;97722.84;5095244;28;20560;-75
2023/12/09 10:13:09;;;;;;;2.97;1.40;;;;;;;7.44;100.00;97720.78;5094944;28;20210;-75
2023/12/09 10:15:36;;;;;;;2.07;1.70;;;;;;;7.39;100.00;97717.97;5095650;28;20204;-75
2023/12/09 10:18:03;;;;;;;2.27;1.67;;;;;;;7.34;100.00;97710.63;5095406;28;20320;-75
2023/12/09 10:20:30;;;;;;;2.83;2.00;;;;;;;7.36;100.00;97697.19;5095237;28;20600;-75
2023/12/09 10:23:00;;;;;;;4.27;1.90;;;;;;;7.52;100.00;97691.47;5095262;28;20212;-75
2023/12/09 10:25:26;;;;;;;5.67;1.80;;;;;;;7.84;100.00;97686.06;5094869;28;20661;-75
2023/12/09 10:27:53;;;;;;;3.85;2.10;;;;;;;7.83;100.00;97668.53;5094666;28;20438;-75
2023/12/09 10:30:19;;;;;;;3.20;2.40;;;;;;;7.52;100.00;97668.47;5094572;28;20246;-75
2023/12/09 10:32:48;;;;;;;5.80;2.57;;;;;;;7.52;100.00;97670.31;5094994;28;20575;-75
2023/12/09 10:35:16;;;;;;;5.13;2.90;;;;;;;7.59;100.00;97671.91;5094679;28;20204;-75
2023/12/09 10:37:42;;;;;;;4.07;2.97;;;;;;;7.65;100.00;97670.28;5094817;28;20196;-75
2023/12/09 10:40:10;;;;;;;5.47;2.70;;;;;;;7.63;100.00;97653.78;5094534;28;20228;-75
2023/12/09 10:42:38;;;;;;;5.03;3.27;;;;;;;7.67;100.00;97653.16;5094005;28;20212;-75
2023/12/09 10:45:07;;;;;;;5.97;3.70;;;;;;;7.57;100.00;97641.41;5094713;28;20203;-75
2023/12/09 10:47:34;;;;;;;4.23;3.47;;;;;;;7.51;100.00;97627.19;5094066;28;20232;-75
2023/12/09 10:50:02;;;;;;;5.97;3.83;;;;;;;7.56;100.00;97623.91;5094598;28;20648;-75
2023/12/09 10:52:29;;;;;;;5.43;3.57;;;;;;;7.59;100.00;97619.00;5094535;28;20568;-75
2023/12/09 10:54:55;;;;;;;5.83;3.17;;;;;;;7.65;100.00;97622.66;5094532;28;20206;-75
2023/12/09 10:57:24;;;;;;;6.10;3.67;;;;;;;7.56;100.00;97619.41;5094484;28;20203;-75
2023/12/09 10:59:52;;;;;;;4.87;3.20;;;;;;;7.68;100.00;97611.63;5094168;28;20225;-75
2023/12/09 11:02:20;;;;;;;5.83;3.30;;;;;;;7.67;100.00;97604.72;5094208;28;20309;-75
2023/12/09 11:04:46;;;;;;;4.93;3.17;;;;;;;7.75;100.00;97597.38;5093853;28;20687;-75
2023/12/09 11:07:13;;;;;;;4.23;3.50;;;;;;;7.65;100.00;97591.69;5093872;28;20204;-75
2023/12/09 11:09:41;;;;;;;4.43;3.63;;;;;;;7.55;100.00;97593.22;5094171;28;20231;-75
2023/12/09 11:12:08;;;;;;;4.30;3.70;;;;;;;7.65;100.00;97596.19;5094225;28;20215;-75
2023/12/09 11:14:35;;;;;;;5.00;3.60;;;;;;;7.64;100.00;97584.00;5094248;28;20260;-75
2023/12/09 11:17:01;;;;;;;4.77;3.67;;;;;;;7.72;100.00;97568.69;5094270;28;20208;-75
2023/12/09 11:19:28;;;;;;;7.40;4.50;;;;;;;7.76;100.00;97554.00;5093647;28;20221;-75
2023/12/09 11:21:55;;;;;;;6.93;4.17;;;;;;;7.71;100.00;97553.00;5093850;28;20215;-75
2023/12/09 11:24:30;;;;;;;4.43;3.60;;;;;;;7.72;100.00;97542.22;5093904;28;20558;-75
2023/12/09 11:26:57;;;;;;;5.23;3.60;;;;;;;7.65;100.00;97527.41;5093932;28;20184;-75
2023/12/09 11:29:25;;;;;;;3.93;3.33;;;;;;;7.79;100.00;97513.06;5093823;28;20594;-75